sensor_id;sensor_type;location;lat;lon;timestamp;P1;durP1;ratioP1;P2;durP2;ratioP2
19251;SDS011;9760;50.944;5.304;2023-11-18T00:01:53;31.87;;;14.80;;
19251;SDS011;9760;50.944;5.304;2023-11-18T00:04:19;28.57;;;15.73;;
19251;SDS011;9760;50.944;5.304;2023-11-18T00:06:45;37.77;;;16.07;;
19251;SDS011;9760;50.944;5.304;2023-11-18T00:09:11;34.57;;;17.07;;
19251;SDS011;9760;50.944;5.304;2023-11-18T00:11:42;33.73;;;15.47;;
19251;SDS011;9760;50.944;5.304;2023-11-18T00:14:09;34.83;;;15.20;;
19251;SDS011;9760;50.944;5.304;2023-11-18T00:16:38;36.03;;;15.13;;
19251;SDS011;9760;50.944;5.304;2023-11-18T00:19:03;28.97;;;14.83;;
19251;SDS011;9760;50.944;5.304;2023-11-18T00:21:34;31.50;;;15.37;;
19251;SDS011;9760;50.944;5.304;2023-11-18T00:24:01;31.33;;;15.50;;
19251;SDS011;9760;50.944;5.304;2023-11-18T00:26:27;30.97;;;14.63;;
19251;SDS011;9760;50.944;5.304;2023-11-18T00:28:52;30.33;;;14.83;;
19251;SDS011;9760;50.944;5.304;2023-11-18T00:31:18;30.03;;;14.57;;
19251;SDS011;9760;50.944;5.304;2023-11-18T00:33:44;30.77;;;14.60;;
19251;SDS011;9760;50.944;5.304;2023-11-18T00:36:10;30.50;;;14.13;;
19251;SDS011;9760;50.944;5.304;2023-11-18T00:38:35;33.67;;;15.97;;
19251;SDS011;9760;50.944;5.304;2023-11-18T00:41:01;28.63;;;14.43;;
19251;SDS011;9760;50.944;5.304;2023-11-18T00:43:27;32.53;;;14.27;;
19251;SDS011;9760;50.944;5.304;2023-11-18T00:45:52;30.43;;;14.07;;
19251;SDS011;9760;50.944;5.304;2023-11-18T00:48:18;26.43;;;14.33;;
19251;SDS011;9760;50.944;5.304;2023-11-18T00:50:43;31.20;;;13.90;;
19251;SDS011;9760;50.944;5.304;2023-11-18T00:53:09;28.33;;;14.03;;
19251;SDS011;9760;50.944;5.304;2023-11-18T00:55:35;32.43;;;14.73;;
19251;SDS011;9760;50.944;5.304;2023-11-18T00:58:01;32.40;;;15.10;;
19251;SDS011;9760;50.944;5.304;2023-11-18T01:00:26;30.77;;;14.70;;
19251;SDS011;9760;50.944;5.304;2023-11-18T01:02:52;27.53;;;13.97;;
19251;SDS011;9760;50.944;5.304;2023-11-18T01:05:20;34.50;;;15.30;;
19251;SDS011;9760;50.944;5.304;2023-11-18T01:07:45;33.30;;;16.00;;
19251;SDS011;9760;50.944;5.304;2023-11-18T01:10:11;28.33;;;14.17;;
19251;SDS011;9760;50.944;5.304;2023-11-18T01:12:39;31.77;;;14.73;;
19251;SDS011;9760;50.944;5.304;2023-11-18T01:15:05;32.27;;;15.23;;
19251;SDS011;9760;50.944;5.304;2023-11-18T01:17:32;35.53;;;15.00;;
19251;SDS011;9760;50.944;5.304;2023-11-18T01:19:58;32.37;;;15.07;;
19251;SDS011;9760;50.944;5.304;2023-11-18T01:22:24;31.27;;;14.43;;
19251;SDS011;9760;50.944;5.304;2023-11-18T01:24:50;33.30;;;15.30;;
19251;SDS011;9760;50.944;5.304;2023-11-18T01:27:18;31.87;;;14.97;;
19251;SDS011;9760;50.944;5.304;2023-11-18T01:29:45;28.33;;;14.17;;
19251;SDS011;9760;50.944;5.304;2023-11-18T01:32:12;29.83;;;14.07;;
19251;SDS011;9760;50.944;5.304;2023-11-18T01:34:39;26.80;;;14.00;;
19251;SDS011;9760;50.944;5.304;2023-11-18T01:37:05;29.13;;;13.67;;
19251;SDS011;9760;50.944;5.304;2023-11-18T01:39:32;29.97;;;14.30;;
19251;SDS011;9760;50.944;5.304;2023-11-18T01:41:58;30.80;;;13.97;;
19251;SDS011;9760;50.944;5.304;2023-11-18T01:44:24;30.20;;;13.77;;
19251;SDS011;9760;50.944;5.304;2023-11-18T01:46:53;31.17;;;13.63;;
19251;SDS011;9760;50.944;5.304;2023-11-18T01:49:28;25.70;;;13.63;;
19251;SDS011;9760;50.944;5.304;2023-11-18T01:51:54;29.87;;;14.17;;
19251;SDS011;9760;50.944;5.304;2023-11-18T01:54:21;27.37;;;13.23;;
19251;SDS011;9760;50.944;5.304;2023-11-18T01:56:50;25.43;;;13.93;;
19251;SDS011;9760;50.944;5.304;2023-11-18T01:59:17;33.50;;;13.50;;
19251;SDS011;9760;50.944;5.304;2023-11-18T02:01:46;31.23;;;14.47;;
19251;SDS011;9760;50.944;5.304;2023-11-18T02:04:19;29.07;;;14.43;;
19251;SDS011;9760;50.944;5.304;2023-11-18T02:06:46;25.57;;;13.10;;
19251;SDS011;9760;50.944;5.304;2023-11-18T02:09:16;28.27;;;13.67;;
19251;SDS011;9760;50.944;5.304;2023-11-18T02:11:45;30.63;;;13.90;;
19251;SDS011;9760;50.944;5.304;2023-11-18T02:14:19;26.60;;;13.43;;
19251;SDS011;9760;50.944;5.304;2023-11-18T02:16:49;27.27;;;13.70;;
19251;SDS011;9760;50.944;5.304;2023-11-18T02:19:21;28.03;;;13.17;;
19251;SDS011;9760;50.944;5.304;2023-11-18T02:21:49;29.13;;;14.17;;
19251;SDS011;9760;50.944;5.304;2023-11-18T02:24:25;30.53;;;13.83;;
19251;SDS011;9760;50.944;5.304;2023-11-18T02:27:06;24.77;;;12.87;;
19251;SDS011;9760;50.944;5.304;2023-11-18T02:29:35;24.73;;;13.07;;
19251;SDS011;9760;50.944;5.304;2023-11-18T02:32:25;24.50;;;11.63;;
19251;SDS011;9760;50.944;5.304;2023-11-18T02:34:58;27.13;;;12.47;;
19251;SDS011;9760;50.944;5.304;2023-11-18T02:37:35;26.27;;;12.50;;
19251;SDS011;9760;50.944;5.304;2023-11-18T02:40:10;16.33;;;10.77;;
19251;SDS011;9760;50.944;5.304;2023-11-18T02:42:42;20.77;;;11.90;;
19251;SDS011;9760;50.944;5.304;2023-11-18T02:45:11;29.03;;;11.37;;
19251;SDS011;9760;50.944;5.304;2023-11-18T02:47:41;27.23;;;11.93;;
19251;SDS011;9760;50.944;5.304;2023-11-18T02:50:10;25.73;;;11.57;;
19251;SDS011;9760;50.944;5.304;2023-11-18T02:52:37;28.33;;;12.10;;
19251;SDS011;9760;50.944;5.304;2023-11-18T02:55:06;26.07;;;12.10;;
19251;SDS011;9760;50.944;5.304;2023-11-18T02:57:33;24.13;;;11.23;;
19251;SDS011;9760;50.944;5.304;2023-11-18T02:59:59;27.17;;;12.17;;
19251;SDS011;9760;50.944;5.304;2023-11-18T03:02:28;22.17;;;10.77;;
19251;SDS011;9760;50.944;5.304;2023-11-18T03:04:55;19.70;;;11.00;;
19251;SDS011;9760;50.944;5.304;2023-11-18T03:07:24;19.87;;;10.67;;
19251;SDS011;9760;50.944;5.304;2023-11-18T03:09:52;20.30;;;10.57;;
19251;SDS011;9760;50.944;5.304;2023-11-18T03:12:24;23.73;;;10.70;;
19251;SDS011;9760;50.944;5.304;2023-11-18T03:14:53;20.33;;;9.97;;
19251;SDS011;9760;50.944;5.304;2023-11-18T03:17:19;19.20;;;9.87;;
19251;SDS011;9760;50.944;5.304;2023-11-18T03:19:47;18.70;;;10.10;;
19251;SDS011;9760;50.944;5.304;2023-11-18T03:22:15;20.33;;;9.10;;
19251;SDS011;9760;50.944;5.304;2023-11-18T03:24:40;25.67;;;9.83;;
19251;SDS011;9760;50.944;5.304;2023-11-18T03:27:07;20.87;;;10.20;;
19251;SDS011;9760;50.944;5.304;2023-11-18T03:29:33;21.40;;;9.57;;
19251;SDS011;9760;50.944;5.304;2023-11-18T03:31:59;24.13;;;9.93;;
19251;SDS011;9760;50.944;5.304;2023-11-18T03:34:25;17.83;;;8.40;;
19251;SDS011;9760;50.944;5.304;2023-11-18T03:36:52;18.23;;;8.23;;
19251;SDS011;9760;50.944;5.304;2023-11-18T03:39:18;19.73;;;8.73;;
19251;SDS011;9760;50.944;5.304;2023-11-18T03:41:43;16.90;;;8.50;;
19251;SDS011;9760;50.944;5.304;2023-11-18T03:44:12;17.77;;;7.87;;
19251;SDS011;9760;50.944;5.304;2023-11-18T03:46:38;17.60;;;7.73;;
19251;SDS011;9760;50.944;5.304;2023-11-18T03:49:03;18.50;;;8.00;;
19251;SDS011;9760;50.944;5.304;2023-11-18T03:51:29;18.27;;;7.53;;
19251;SDS011;9760;50.944;5.304;2023-11-18T03:53:55;16.87;;;6.83;;
19251;SDS011;9760;50.944;5.304;2023-11-18T03:56:20;18.37;;;7.67;;
19251;SDS011;9760;50.944;5.304;2023-11-18T03:58:46;16.50;;;7.67;;
19251;SDS011;9760;50.944;5.304;2023-11-18T04:01:22;20.40;;;7.60;;
19251;SDS011;9760;50.944;5.304;2023-11-18T04:03:52;15.37;;;6.73;;
19251;SDS011;9760;50.944;5.304;2023-11-18T04:06:19;18.87;;;6.60;;
19251;SDS011;9760;50.944;5.304;2023-11-18T04:08:46;22.53;;;7.57;;
19251;SDS011;9760;50.944;5.304;2023-11-18T04:11:13;20.20;;;6.57;;
19251;SDS011;9760;50.944;5.304;2023-11-18T04:13:42;13.67;;;6.17;;
19251;SDS011;9760;50.944;5.304;2023-11-18T04:16:11;18.37;;;6.20;;
19251;SDS011;9760;50.944;5.304;2023-11-18T04:18:41;15.33;;;6.47;;
19251;SDS011;9760;50.944;5.304;2023-11-18T04:21:08;11.73;;;6.10;;
19251;SDS011;9760;50.944;5.304;2023-11-18T04:23:36;13.60;;;5.93;;
19251;SDS011;9760;50.944;5.304;2023-11-18T04:26:03;12.50;;;6.07;;
19251;SDS011;9760;50.944;5.304;2023-11-18T04:28:29;15.10;;;5.40;;
19251;SDS011;9760;50.944;5.304;2023-11-18T04:30:55;12.97;;;6.17;;
19251;SDS011;9760;50.944;5.304;2023-11-18T04:33:21;13.37;;;6.47;;
19251;SDS011;9760;50.944;5.304;2023-11-18T04:35:47;14.40;;;5.87;;
19251;SDS011;9760;50.944;5.304;2023-11-18T04:38:12;13.50;;;5.40;;
19251;SDS011;9760;50.944;5.304;2023-11-18T04:40:38;14.53;;;5.30;;
19251;SDS011;9760;50.944;5.304;2023-11-18T04:43:06;14.17;;;5.07;;
19251;SDS011;9760;50.944;5.304;2023-11-18T04:45:32;17.93;;;5.27;;
19251;SDS011;9760;50.944;5.304;2023-11-18T04:47:59;19.43;;;4.87;;
19251;SDS011;9760;50.944;5.304;2023-11-18T04:50:24;16.60;;;5.20;;
19251;SDS011;9760;50.944;5.304;2023-11-18T04:52:50;17.60;;;4.90;;
19251;SDS011;9760;50.944;5.304;2023-11-18T04:55:16;18.10;;;4.97;;
19251;SDS011;9760;50.944;5.304;2023-11-18T04:57:41;9.63;;;4.77;;
19251;SDS011;9760;50.944;5.304;2023-11-18T05:00:08;11.50;;;4.57;;
19251;SDS011;9760;50.944;5.304;2023-11-18T05:02:37;16.10;;;4.67;;
19251;SDS011;9760;50.944;5.304;2023-11-18T05:05:04;13.37;;;4.60;;
19251;SDS011;9760;50.944;5.304;2023-11-18T05:07:32;11.80;;;5.13;;
19251;SDS011;9760;50.944;5.304;2023-11-18T05:09:59;13.17;;;4.77;;
19251;SDS011;9760;50.944;5.304;2023-11-18T05:12:25;14.27;;;4.70;;
19251;SDS011;9760;50.944;5.304;2023-11-18T05:14:51;12.83;;;4.10;;
19251;SDS011;9760;50.944;5.304;2023-11-18T05:17:17;15.57;;;4.90;;
19251;SDS011;9760;50.944;5.304;2023-11-18T05:19:42;13.83;;;4.20;;
19251;SDS011;9760;50.944;5.304;2023-11-18T05:22:08;10.10;;;4.23;;
19251;SDS011;9760;50.944;5.304;2023-11-18T05:24:34;19.03;;;6.10;;
19251;SDS011;9760;50.944;5.304;2023-11-18T05:27:00;19.43;;;4.00;;
19251;SDS011;9760;50.944;5.304;2023-11-18T05:29:30;15.90;;;4.57;;
19251;SDS011;9760;50.944;5.304;2023-11-18T05:31:55;17.40;;;5.20;;
19251;SDS011;9760;50.944;5.304;2023-11-18T05:34:21;10.43;;;3.90;;
19251;SDS011;9760;50.944;5.304;2023-11-18T05:36:47;18.97;;;4.87;;
19251;SDS011;9760;50.944;5.304;2023-11-18T05:39:13;11.17;;;3.50;;
19251;SDS011;9760;50.944;5.304;2023-11-18T05:41:40;13.77;;;4.77;;
19251;SDS011;9760;50.944;5.304;2023-11-18T05:44:10;11.73;;;3.80;;
19251;SDS011;9760;50.944;5.304;2023-11-18T05:46:42;9.57;;;4.00;;
19251;SDS011;9760;50.944;5.304;2023-11-18T05:49:11;14.83;;;4.20;;
19251;SDS011;9760;50.944;5.304;2023-11-18T05:51:39;11.50;;;3.50;;
19251;SDS011;9760;50.944;5.304;2023-11-18T05:54:08;18.53;;;3.40;;
19251;SDS011;9760;50.944;5.304;2023-11-18T05:56:34;9.93;;;3.27;;
19251;SDS011;9760;50.944;5.304;2023-11-18T05:59:01;11.73;;;3.30;;
19251;SDS011;9760;50.944;5.304;2023-11-18T06:01:29;8.00;;;3.13;;
19251;SDS011;9760;50.944;5.304;2023-11-18T06:03:55;10.93;;;3.63;;
19251;SDS011;9760;50.944;5.304;2023-11-18T06:06:22;10.40;;;2.93;;
19251;SDS011;9760;50.944;5.304;2023-11-18T06:08:48;7.80;;;3.00;;
19251;SDS011;9760;50.944;5.304;2023-11-18T06:11:14;14.10;;;5.60;;
19251;SDS011;9760;50.944;5.304;2023-11-18T06:13:50;17.10;;;3.97;;
19251;SDS011;9760;50.944;5.304;2023-11-18T06:18:46;12.10;;;3.87;;
19251;SDS011;9760;50.944;5.304;2023-11-18T06:21:17;9.83;;;3.57;;
19251;SDS011;9760;50.944;5.304;2023-11-18T06:23:45;15.57;;;5.33;;
19251;SDS011;9760;50.944;5.304;2023-11-18T06:26:12;9.23;;;3.10;;
19251;SDS011;9760;50.944;5.304;2023-11-18T06:28:39;9.90;;;3.97;;
19251;SDS011;9760;50.944;5.304;2023-11-18T06:31:06;15.67;;;4.13;;
19251;SDS011;9760;50.944;5.304;2023-11-18T06:33:51;15.57;;;6.13;;
19251;SDS011;9760;50.944;5.304;2023-11-18T06:36:20;7.57;;;3.23;;
19251;SDS011;9760;50.944;5.304;2023-11-18T06:38:47;16.70;;;4.27;;
19251;SDS011;9760;50.944;5.304;2023-11-18T06:41:15;14.77;;;4.43;;
19251;SDS011;9760;50.944;5.304;2023-11-18T06:43:42;21.53;;;4.63;;
19251;SDS011;9760;50.944;5.304;2023-11-18T06:46:22;12.10;;;3.70;;
19251;SDS011;9760;50.944;5.304;2023-11-18T06:48:49;6.80;;;3.23;;
19251;SDS011;9760;50.944;5.304;2023-11-18T06:51:28;15.47;;;5.37;;
19251;SDS011;9760;50.944;5.304;2023-11-18T06:53:57;12.93;;;4.27;;
19251;SDS011;9760;50.944;5.304;2023-11-18T06:56:23;12.17;;;4.30;;
19251;SDS011;9760;50.944;5.304;2023-11-18T06:58:49;14.47;;;3.60;;
19251;SDS011;9760;50.944;5.304;2023-11-18T07:01:15;13.20;;;4.60;;
19251;SDS011;9760;50.944;5.304;2023-11-18T07:03:41;13.83;;;4.87;;
19251;SDS011;9760;50.944;5.304;2023-11-18T07:06:07;15.23;;;4.63;;
19251;SDS011;9760;50.944;5.304;2023-11-18T07:08:34;11.07;;;3.13;;
19251;SDS011;9760;50.944;5.304;2023-11-18T07:11:01;15.43;;;4.77;;
19251;SDS011;9760;50.944;5.304;2023-11-18T07:13:29;17.93;;;6.13;;
19251;SDS011;9760;50.944;5.304;2023-11-18T07:15:55;18.17;;;4.20;;
19251;SDS011;9760;50.944;5.304;2023-11-18T07:18:22;17.73;;;3.70;;
19251;SDS011;9760;50.944;5.304;2023-11-18T07:20:49;10.70;;;3.73;;
19251;SDS011;9760;50.944;5.304;2023-11-18T07:23:16;11.63;;;3.53;;
19251;SDS011;9760;50.944;5.304;2023-11-18T07:25:43;11.57;;;3.40;;
19251;SDS011;9760;50.944;5.304;2023-11-18T07:28:09;18.13;;;2.83;;
19251;SDS011;9760;50.944;5.304;2023-11-18T07:30:40;8.90;;;3.10;;
19251;SDS011;9760;50.944;5.304;2023-11-18T07:33:07;9.20;;;3.63;;
19251;SDS011;9760;50.944;5.304;2023-11-18T07:35:33;19.03;;;3.47;;
19251;SDS011;9760;50.944;5.304;2023-11-18T07:38:02;12.00;;;3.47;;
19251;SDS011;9760;50.944;5.304;2023-11-18T07:40:27;7.57;;;3.10;;
19251;SDS011;9760;50.944;5.304;2023-11-18T07:42:56;6.13;;;3.20;;
19251;SDS011;9760;50.944;5.304;2023-11-18T07:45:22;10.13;;;3.30;;
19251;SDS011;9760;50.944;5.304;2023-11-18T07:47:51;8.43;;;3.23;;
19251;SDS011;9760;50.944;5.304;2023-11-18T07:50:19;14.07;;;3.30;;
19251;SDS011;9760;50.944;5.304;2023-11-18T07:52:48;7.27;;;3.17;;
19251;SDS011;9760;50.944;5.304;2023-11-18T07:55:14;10.30;;;3.30;;
19251;SDS011;9760;50.944;5.304;2023-11-18T07:57:40;11.03;;;3.20;;
19251;SDS011;9760;50.944;5.304;2023-11-18T08:00:06;14.30;;;3.40;;
19251;SDS011;9760;50.944;5.304;2023-11-18T08:02:38;9.50;;;3.20;;
19251;SDS011;9760;50.944;5.304;2023-11-18T08:05:05;14.63;;;3.07;;
19251;SDS011;9760;50.944;5.304;2023-11-18T08:07:38;14.90;;;3.53;;
19251;SDS011;9760;50.944;5.304;2023-11-18T08:10:04;9.97;;;3.30;;
19251;SDS011;9760;50.944;5.304;2023-11-18T08:12:30;9.03;;;3.00;;
19251;SDS011;9760;50.944;5.304;2023-11-18T08:14:57;9.27;;;3.40;;
19251;SDS011;9760;50.944;5.304;2023-11-18T08:17:26;12.87;;;3.70;;
19251;SDS011;9760;50.944;5.304;2023-11-18T08:19:52;13.10;;;3.97;;
19251;SDS011;9760;50.944;5.304;2023-11-18T08:22:18;12.10;;;3.43;;
19251;SDS011;9760;50.944;5.304;2023-11-18T08:24:44;12.20;;;3.73;;
19251;SDS011;9760;50.944;5.304;2023-11-18T08:27:11;13.40;;;4.47;;
19251;SDS011;9760;50.944;5.304;2023-11-18T08:29:37;10.97;;;3.87;;
19251;SDS011;9760;50.944;5.304;2023-11-18T08:32:04;9.43;;;4.43;;
19251;SDS011;9760;50.944;5.304;2023-11-18T08:34:31;13.03;;;4.37;;
19251;SDS011;9760;50.944;5.304;2023-11-18T08:36:58;12.33;;;3.93;;
19251;SDS011;9760;50.944;5.304;2023-11-18T08:39:25;14.53;;;4.13;;
19251;SDS011;9760;50.944;5.304;2023-11-18T08:41:51;14.73;;;4.03;;
19251;SDS011;9760;50.944;5.304;2023-11-18T08:44:17;13.23;;;3.80;;
19251;SDS011;9760;50.944;5.304;2023-11-18T08:46:43;12.50;;;4.63;;
19251;SDS011;9760;50.944;5.304;2023-11-18T08:49:09;13.57;;;4.00;;
19251;SDS011;9760;50.944;5.304;2023-11-18T08:51:39;10.33;;;4.20;;
19251;SDS011;9760;50.944;5.304;2023-11-18T08:54:07;9.10;;;4.10;;
19251;SDS011;9760;50.944;5.304;2023-11-18T08:56:50;11.13;;;4.40;;
19251;SDS011;9760;50.944;5.304;2023-11-18T08:59:20;16.87;;;4.37;;
19251;SDS011;9760;50.944;5.304;2023-11-18T09:01:52;17.33;;;3.97;;
19251;SDS011;9760;50.944;5.304;2023-11-18T09:04:21;10.60;;;4.43;;
19251;SDS011;9760;50.944;5.304;2023-11-18T09:06:48;14.93;;;4.90;;
19251;SDS011;9760;50.944;5.304;2023-11-18T09:09:14;14.30;;;4.50;;
19251;SDS011;9760;50.944;5.304;2023-11-18T09:11:40;17.80;;;4.57;;
19251;SDS011;9760;50.944;5.304;2023-11-18T09:14:07;12.00;;;4.20;;
19251;SDS011;9760;50.944;5.304;2023-11-18T09:16:33;12.53;;;4.47;;
19251;SDS011;9760;50.944;5.304;2023-11-18T09:19:04;18.10;;;5.37;;
19251;SDS011;9760;50.944;5.304;2023-11-18T09:21:31;11.40;;;4.63;;
19251;SDS011;9760;50.944;5.304;2023-11-18T09:24:00;8.87;;;4.90;;
19251;SDS011;9760;50.944;5.304;2023-11-18T09:26:29;13.93;;;5.13;;
19251;SDS011;9760;50.944;5.304;2023-11-18T09:28:55;21.73;;;5.37;;
19251;SDS011;9760;50.944;5.304;2023-11-18T09:31:22;13.33;;;5.10;;
19251;SDS011;9760;50.944;5.304;2023-11-18T09:33:48;13.77;;;4.60;;
19251;SDS011;9760;50.944;5.304;2023-11-18T09:36:17;13.83;;;4.33;;
19251;SDS011;9760;50.944;5.304;2023-11-18T09:38:43;14.00;;;4.37;;
19251;SDS011;9760;50.944;5.304;2023-11-18T09:41:12;12.70;;;4.57;;
19251;SDS011;9760;50.944;5.304;2023-11-18T09:43:41;11.33;;;4.10;;
19251;SDS011;9760;50.944;5.304;2023-11-18T09:46:11;11.53;;;5.07;;
19251;SDS011;9760;50.944;5.304;2023-11-18T09:48:45;14.83;;;4.43;;
19251;SDS011;9760;50.944;5.304;2023-11-18T09:51:14;18.10;;;6.50;;
19251;SDS011;9760;50.944;5.304;2023-11-18T09:53:46;16.30;;;5.53;;
19251;SDS011;9760;50.944;5.304;2023-11-18T09:56:23;17.43;;;5.07;;
19251;SDS011;9760;50.944;5.304;2023-11-18T09:59:48;21.20;;;5.43;;
19251;SDS011;9760;50.944;5.304;2023-11-18T10:02:20;16.33;;;5.93;;
19251;SDS011;9760;50.944;5.304;2023-11-18T10:04:49;11.00;;;4.00;;
19251;SDS011;9760;50.944;5.304;2023-11-18T10:07:22;16.90;;;4.33;;
19251;SDS011;9760;50.944;5.304;2023-11-18T10:09:53;14.60;;;3.80;;
19251;SDS011;9760;50.944;5.304;2023-11-18T10:12:23;14.50;;;3.87;;
19251;SDS011;9760;50.944;5.304;2023-11-18T10:14:49;15.50;;;3.77;;
19251;SDS011;9760;50.944;5.304;2023-11-18T10:17:18;10.93;;;3.20;;
19251;SDS011;9760;50.944;5.304;2023-11-18T10:19:53;12.93;;;3.47;;
19251;SDS011;9760;50.944;5.304;2023-11-18T10:22:24;15.27;;;3.40;;
19251;SDS011;9760;50.944;5.304;2023-11-18T10:24:54;9.57;;;3.67;;
19251;SDS011;9760;50.944;5.304;2023-11-18T10:27:24;13.57;;;3.80;;
19251;SDS011;9760;50.944;5.304;2023-11-18T10:30:12;10.53;;;3.60;;
19251;SDS011;9760;50.944;5.304;2023-11-18T10:32:44;9.23;;;3.33;;
19251;SDS011;9760;50.944;5.304;2023-11-18T10:35:30;9.63;;;3.73;;
19251;SDS011;9760;50.944;5.304;2023-11-18T10:37:57;14.97;;;4.00;;
19251;SDS011;9760;50.944;5.304;2023-11-18T10:40:25;12.17;;;3.37;;
19251;SDS011;9760;50.944;5.304;2023-11-18T10:42:52;10.60;;;3.57;;
19251;SDS011;9760;50.944;5.304;2023-11-18T10:45:24;9.40;;;3.30;;
19251;SDS011;9760;50.944;5.304;2023-11-18T10:47:54;11.03;;;3.23;;
19251;SDS011;9760;50.944;5.304;2023-11-18T10:50:21;8.90;;;3.33;;
19251;SDS011;9760;50.944;5.304;2023-11-18T10:52:48;9.13;;;3.17;;
19251;SDS011;9760;50.944;5.304;2023-11-18T10:55:14;12.37;;;3.50;;
19251;SDS011;9760;50.944;5.304;2023-11-18T10:57:44;6.00;;;2.93;;
19251;SDS011;9760;50.944;5.304;2023-11-18T11:00:10;10.80;;;3.47;;
19251;SDS011;9760;50.944;5.304;2023-11-18T11:02:40;12.43;;;3.53;;
19251;SDS011;9760;50.944;5.304;2023-11-18T11:05:07;11.10;;;3.37;;
19251;SDS011;9760;50.944;5.304;2023-11-18T11:07:40;9.50;;;3.20;;
19251;SDS011;9760;50.944;5.304;2023-11-18T11:10:09;8.90;;;3.33;;
19251;SDS011;9760;50.944;5.304;2023-11-18T11:12:36;16.93;;;3.80;;
19251;SDS011;9760;50.944;5.304;2023-11-18T11:15:20;18.83;;;3.47;;
19251;SDS011;9760;50.944;5.304;2023-11-18T11:17:48;13.27;;;3.27;;
19251;SDS011;9760;50.944;5.304;2023-11-18T11:20:23;11.87;;;3.73;;
19251;SDS011;9760;50.944;5.304;2023-11-18T11:25:50;12.23;;;3.90;;
19251;SDS011;9760;50.944;5.304;2023-11-18T11:28:52;12.33;;;3.83;;
19251;SDS011;9760;50.944;5.304;2023-11-18T11:31:37;7.63;;;3.60;;
19251;SDS011;9760;50.944;5.304;2023-11-18T11:34:04;13.27;;;3.63;;
19251;SDS011;9760;50.944;5.304;2023-11-18T11:36:37;11.27;;;3.23;;
19251;SDS011;9760;50.944;5.304;2023-11-18T11:39:07;7.30;;;3.40;;
19251;SDS011;9760;50.944;5.304;2023-11-18T11:41:41;10.53;;;3.57;;
19251;SDS011;9760;50.944;5.304;2023-11-18T11:44:15;9.23;;;3.60;;
19251;SDS011;9760;50.944;5.304;2023-11-18T11:46:41;8.47;;;3.60;;
19251;SDS011;9760;50.944;5.304;2023-11-18T11:49:08;8.17;;;3.40;;
19251;SDS011;9760;50.944;5.304;2023-11-18T11:51:54;8.63;;;3.30;;
19251;SDS011;9760;50.944;5.304;2023-11-18T11:54:40;9.37;;;3.07;;
19251;SDS011;9760;50.944;5.304;2023-11-18T11:57:10;7.27;;;2.90;;
19251;SDS011;9760;50.944;5.304;2023-11-18T12:02:12;9.40;;;3.20;;
19251;SDS011;9760;50.944;5.304;2023-11-18T12:04:46;8.97;;;2.70;;
19251;SDS011;9760;50.944;5.304;2023-11-18T12:07:17;10.77;;;2.60;;
19251;SDS011;9760;50.944;5.304;2023-11-18T12:09:55;8.13;;;2.80;;
19251;SDS011;9760;50.944;5.304;2023-11-18T12:12:22;7.67;;;2.23;;
19251;SDS011;9760;50.944;5.304;2023-11-18T12:14:58;5.40;;;2.20;;
19251;SDS011;9760;50.944;5.304;2023-11-18T12:23:07;5.40;;;2.73;;
19251;SDS011;9760;50.944;5.304;2023-11-18T12:25:39;6.17;;;2.27;;
19251;SDS011;9760;50.944;5.304;2023-11-18T12:28:15;5.77;;;2.60;;
19251;SDS011;9760;50.944;5.304;2023-11-18T12:30:42;6.57;;;2.10;;
19251;SDS011;9760;50.944;5.304;2023-11-18T12:33:17;4.77;;;1.87;;
19251;SDS011;9760;50.944;5.304;2023-11-18T12:35:57;5.90;;;2.27;;
19251;SDS011;9760;50.944;5.304;2023-11-18T12:38:55;5.27;;;2.33;;
19251;SDS011;9760;50.944;5.304;2023-11-18T12:41:39;3.00;;;1.70;;
19251;SDS011;9760;50.944;5.304;2023-11-18T12:46:55;3.13;;;1.67;;
19251;SDS011;9760;50.944;5.304;2023-11-18T12:49:43;6.17;;;1.30;;
19251;SDS011;9760;50.944;5.304;2023-11-18T12:52:12;5.37;;;1.80;;
19251;SDS011;9760;50.944;5.304;2023-11-18T12:54:40;4.87;;;1.60;;
19251;SDS011;9760;50.944;5.304;2023-11-18T12:57:09;3.53;;;1.50;;
19251;SDS011;9760;50.944;5.304;2023-11-18T12:59:39;4.53;;;1.30;;
19251;SDS011;9760;50.944;5.304;2023-11-18T13:02:08;3.57;;;1.40;;
19251;SDS011;9760;50.944;5.304;2023-11-18T13:04:41;3.63;;;1.20;;
19251;SDS011;9760;50.944;5.304;2023-11-18T13:07:06;3.33;;;1.17;;
19251;SDS011;9760;50.944;5.304;2023-11-18T13:09:36;3.90;;;1.10;;
19251;SDS011;9760;50.944;5.304;2023-11-18T13:12:03;2.10;;;1.00;;
19251;SDS011;9760;50.944;5.304;2023-11-18T13:14:31;5.43;;;1.30;;
19251;SDS011;9760;50.944;5.304;2023-11-18T13:17:04;4.43;;;1.13;;
19251;SDS011;9760;50.944;5.304;2023-11-18T13:19:34;1.77;;;0.80;;
19251;SDS011;9760;50.944;5.304;2023-11-18T13:22:04;7.70;;;1.00;;
19251;SDS011;9760;50.944;5.304;2023-11-18T13:24:37;2.47;;;1.00;;
19251;SDS011;9760;50.944;5.304;2023-11-18T13:27:10;3.23;;;0.83;;
19251;SDS011;9760;50.944;5.304;2023-11-18T13:29:39;3.17;;;1.00;;
19251;SDS011;9760;50.944;5.304;2023-11-18T13:32:10;3.00;;;0.80;;
19251;SDS011;9760;50.944;5.304;2023-11-18T13:34:37;0.93;;;0.70;;
19251;SDS011;9760;50.944;5.304;2023-11-18T13:37:06;3.20;;;0.80;;
19251;SDS011;9760;50.944;5.304;2023-11-18T13:39:33;1.70;;;0.80;;
19251;SDS011;9760;50.944;5.304;2023-11-18T13:42:17;2.10;;;0.77;;
19251;SDS011;9760;50.944;5.304;2023-11-18T13:44:48;3.13;;;0.80;;
19251;SDS011;9760;50.944;5.304;2023-11-18T13:47:18;5.10;;;0.97;;
19251;SDS011;9760;50.944;5.304;2023-11-18T13:49:45;0.60;;;0.60;;
19251;SDS011;9760;50.944;5.304;2023-11-18T13:52:15;2.30;;;0.93;;
19251;SDS011;9760;50.944;5.304;2023-11-18T13:54:43;0.93;;;0.80;;
19251;SDS011;9760;50.944;5.304;2023-11-18T13:57:10;1.30;;;0.70;;
19251;SDS011;9760;50.944;5.304;2023-11-18T13:59:37;2.57;;;0.70;;
19251;SDS011;9760;50.944;5.304;2023-11-18T14:02:03;0.80;;;0.60;;
19251;SDS011;9760;50.944;5.304;2023-11-18T14:04:30;3.30;;;1.20;;
19251;SDS011;9760;50.944;5.304;2023-11-18T14:06:59;2.10;;;0.90;;
19251;SDS011;9760;50.944;5.304;2023-11-18T14:09:29;1.07;;;0.73;;
19251;SDS011;9760;50.944;5.304;2023-11-18T14:11:56;4.63;;;0.70;;
19251;SDS011;9760;50.944;5.304;2023-11-18T14:14:23;2.53;;;1.00;;
19251;SDS011;9760;50.944;5.304;2023-11-18T14:16:50;3.37;;;1.10;;
19251;SDS011;9760;50.944;5.304;2023-11-18T14:19:18;0.90;;;0.80;;
19251;SDS011;9760;50.944;5.304;2023-11-18T14:21:44;2.40;;;0.90;;
19251;SDS011;9760;50.944;5.304;2023-11-18T14:24:10;4.47;;;0.87;;
19251;SDS011;9760;50.944;5.304;2023-11-18T14:26:37;2.70;;;0.90;;
19251;SDS011;9760;50.944;5.304;2023-11-18T14:29:05;4.73;;;1.07;;
19251;SDS011;9760;50.944;5.304;2023-11-18T14:31:32;1.93;;;0.80;;
19251;SDS011;9760;50.944;5.304;2023-11-18T14:33:59;3.13;;;1.00;;
19251;SDS011;9760;50.944;5.304;2023-11-18T14:36:28;1.17;;;0.67;;
19251;SDS011;9760;50.944;5.304;2023-11-18T14:38:53;1.93;;;0.80;;
19251;SDS011;9760;50.944;5.304;2023-11-18T14:41:19;3.70;;;0.83;;
19251;SDS011;9760;50.944;5.304;2023-11-18T14:43:49;1.50;;;0.70;;
19251;SDS011;9760;50.944;5.304;2023-11-18T14:46:15;3.13;;;0.80;;
19251;SDS011;9760;50.944;5.304;2023-11-18T14:48:41;1.07;;;0.80;;
19251;SDS011;9760;50.944;5.304;2023-11-18T14:51:07;2.17;;;0.90;;
19251;SDS011;9760;50.944;5.304;2023-11-18T14:53:33;1.30;;;0.67;;
19251;SDS011;9760;50.944;5.304;2023-11-18T14:55:59;1.50;;;0.90;;
19251;SDS011;9760;50.944;5.304;2023-11-18T14:58:25;0.70;;;0.60;;
19251;SDS011;9760;50.944;5.304;2023-11-18T15:00:51;1.00;;;0.80;;
19251;SDS011;9760;50.944;5.304;2023-11-18T15:03:17;4.87;;;0.90;;
19251;SDS011;9760;50.944;5.304;2023-11-18T15:05:42;1.13;;;0.70;;
19251;SDS011;9760;50.944;5.304;2023-11-18T15:08:09;1.20;;;0.70;;
19251;SDS011;9760;50.944;5.304;2023-11-18T15:10:35;0.90;;;0.90;;
19251;SDS011;9760;50.944;5.304;2023-11-18T15:13:04;0.83;;;0.60;;
19251;SDS011;9760;50.944;5.304;2023-11-18T15:15:31;2.30;;;0.80;;